Time;durP1;ratioP1;P1;durP2;ratioP2;P2;SDS_P1;SDS_P2;PMS_P1;PMS_P2;Temp;Humidity;BMP_temperature;BMP_pressure;BME280_temperature;BME280_humidity;BME280_pressure;Samples;Min_cycle;Max_cycle;Signal;HPM_P1;HPM_P2
2022/11/16 00:00:23;;;;;;;15.13;9.98;;;10.70;99.90;;;;;;5154980;27;20052;-65
2022/11/16 00:02:51;;;;;;;13.35;10.13;;;10.50;99.90;;;;;;5154985;27;20047;-65
2022/11/16 00:05:18;;;;;;;15.25;10.10;;;11.20;99.90;;;;;;5136383;27;20432;-65
2022/11/16 00:07:44;;;;;;;14.10;11.02;;;10.60;99.90;;;;;;5154922;27;20095;-66
2022/11/16 00:10:10;;;;;;;13.48;10.52;;;11.90;99.90;;;;;;5154782;27;20042;-65
2022/11/16 00:12:36;;;;;;;;;;;10.90;99.90;;;;;;5154971;27;20049;-65
2022/11/16 00:15:02;;;;;;;18.10;10.70;;;10.40;99.90;;;;;;5154794;27;19919;-64
2022/11/16 00:17:27;;;;;;;16.33;11.48;;;10.60;99.90;;;;;;5154420;27;20066;-64
2022/11/16 00:19:53;;;;;;;17.98;12.35;;;10.70;99.90;;;;;;5136254;27;20054;-67
2022/11/16 00:22:19;;;;;;;18.27;12.32;;;10.80;99.90;;;;;;5154684;27;20047;-65
2022/11/16 00:24:44;;;;;;;19.85;12.95;;;11.00;99.90;;;;;;5154628;27;20039;-64
2022/11/16 00:27:10;;;;;;;21.48;12.70;;;10.80;99.90;;;;;;5154394;27;20050;-65
2022/11/16 00:29:35;;;;;;;17.58;12.65;;;10.50;99.90;;;;;;5154494;27;20049;-64
2022/11/16 00:32:01;;;;;;;19.17;12.93;;;10.80;99.90;;;;;;5154544;27;20069;-64
2022/11/16 00:34:27;;;;;;;20.08;13.30;;;10.40;99.90;;;;;;5136018;27;20486;-64
2022/11/16 00:36:53;;;;;;;22.17;14.18;;;10.70;99.90;;;;;;5154782;27;20039;-64
2022/11/16 00:39:18;;;;;;;23.65;14.07;;;10.70;99.90;;;;;;5154781;27;20050;-66
2022/11/16 00:41:45;;;;;;;23.98;14.93;;;10.60;99.90;;;;;;5153962;27;20474;-65
2022/11/16 00:44:11;;;;;;;20.08;14.23;;;11.10;99.90;;;;;;5136183;27;20406;-64
2022/11/16 00:46:37;;;;;;;22.85;14.20;;;11.50;99.90;;;;;;5154505;27;20434;-64
2022/11/16 00:49:04;;;;;;;23.77;15.98;;;11.40;99.90;;;;;;5154275;27;20074;-65
2022/11/16 00:51:30;;;;;;;23.90;15.20;;;10.50;99.90;;;;;;5154322;27;20078;-65
2022/11/16 00:53:56;;;;;;;24.65;14.93;;;10.80;99.90;;;;;;5154363;27;20062;-64
2022/11/16 00:56:22;;;;;;;25.70;15.65;;;10.80;99.90;;;;;;5153767;27;20490;-64
2022/11/16 00:58:47;;;;;;;22.05;15.30;;;11.70;99.90;;;;;;5154318;27;20030;-64
2022/11/16 01:01:13;;;;;;;24.13;15.90;;;10.70;99.90;;;;;;5154254;27;20451;-64
2022/11/16 01:03:39;;;;;;;24.48;15.85;;;10.80;99.90;;;;;;5135799;27;20042;-64
2022/11/16 01:06:08;;;;;;;27.70;17.02;;;11.30;99.90;;;;;;5135697;27;20046;-64
2022/11/16 01:08:36;;;;;;;26.83;16.77;;;11.10;99.90;;;;;;5154167;27;20051;-67
2022/11/16 01:13:47;;;;;;;30.63;16.80;;;10.50;99.90;;;;;;5154226;27;20053;-67
2022/11/16 01:16:15;;;;;;;38.67;17.65;;;10.90;99.90;;;;;;5135726;27;20047;-64
2022/11/16 01:18:41;;;;;;;27.33;17.92;;;11.30;99.90;;;;;;5154071;27;20181;-64
2022/11/16 01:21:07;;;;;;;27.45;17.33;;;10.80;99.90;;;;;;5154063;27;20058;-65
2022/11/16 01:23:32;;;;;;;28.40;17.60;;;10.60;99.90;;;;;;5154097;27;20135;-64
2022/11/16 01:26:00;;;;;;;26.35;17.65;;;10.70;99.90;;;;;;5153777;27;20073;-64
2022/11/16 01:28:30;;;;;;;27.23;17.42;;;10.80;99.90;;;;;;5153942;27;20059;-65
2022/11/16 01:30:55;;;;;;;25.90;17.50;;;10.50;99.90;;;;;;5153723;27;20055;-63
2022/11/16 01:33:21;;;;;;;28.75;18.90;;;11.20;99.90;;;;;;5153962;27;20057;-63
2022/11/16 01:35:47;;;;;;;28.30;18.23;;;10.60;99.90;;;;;;5135683;27;20047;-64
2022/11/16 01:38:13;;;;;;;31.45;19.23;;;10.60;99.90;;;;;;5153913;27;20042;-64
2022/11/16 01:40:39;;;;;;;34.17;19.55;;;10.70;99.90;;;;;;5153625;27;20081;-64
2022/11/16 01:43:16;;;;;;;32.83;19.23;;;10.60;99.90;;;;;;5153898;27;20133;-65
2022/11/16 01:45:41;;;;;;;;;;;11.20;99.90;;;;;;5154303;27;20090;-64
2022/11/16 01:48:10;;;;;;;30.85;19.38;;;10.50;99.90;;;;;;5153700;27;19970;-64
2022/11/16 01:50:37;;;;;;;28.73;18.40;;;10.70;99.90;;;;;;5153783;27;20158;-64
2022/11/16 01:53:05;;;;;;;30.58;19.00;;;10.90;99.90;;;;;;5137483;27;20060;-64
2022/11/16 01:55:34;;;;;;;34.72;19.88;;;10.90;99.90;;;;;;5157269;27;20046;-64
2022/11/16 01:58:01;;;;;;;31.80;19.48;;;11.30;99.90;;;;;;5157453;27;20379;-66
2022/11/16 02:00:27;;;;;;;31.25;19.00;;;11.20;99.90;;;;;;5157342;27;20122;-65
2022/11/16 02:02:52;;;;;;;33.83;19.70;;;10.40;99.90;;;;;;5157309;27;20089;-64
2022/11/16 02:05:24;;;;;;;31.35;19.50;;;10.70;99.90;;;;;;5157581;27;20093;-64
2022/11/16 02:11:05;;;;;;;31.80;19.35;;;10.90;99.90;;;;;;5156934;27;20057;-63
2022/11/16 02:14:12;;;;;;;28.05;17.55;;;11.10;99.90;;;;;;5157175;27;20131;-64
2022/11/16 02:16:52;;;;;;;33.22;19.15;;;10.90;99.90;;;;;;5156460;27;20057;-64
2022/11/16 02:19:37;;;;;;;29.45;17.70;;;10.60;99.90;;;;;;5157055;27;20089;-64
2022/11/16 02:22:37;;;;;;;30.25;18.90;;;11.00;99.90;;;;;;5156965;27;20088;-64
2022/11/16 02:25:13;;;;;;;28.45;17.58;;;11.00;99.90;;;;;;5156673;27;20053;-65
2022/11/16 02:27:51;;;;;;;27.02;17.80;;;11.70;99.90;;;;;;5156879;27;20121;-64
2022/11/16 02:30:19;;;;;;;26.17;15.98;;;10.40;99.90;;;;;;5156717;27;20047;-65
2022/11/16 02:33:10;;;;;;;28.98;17.08;;;11.10;99.90;;;;;;5156173;27;20058;-64
2022/11/16 02:35:42;;;;;;;25.65;16.58;;;10.90;99.90;;;;;;5146576;27;20047;-65
2022/11/16 02:38:18;;;;;;;24.73;16.27;;;10.60;99.90;;;;;;5156686;27;20551;-64
2022/11/16 02:40:49;;;;;;;27.50;15.60;;;10.40;99.90;;;;;;5156621;27;20043;-64
2022/11/16 02:43:25;;;;;;;22.95;15.25;;;10.70;99.90;;;;;;5156567;27;20046;-65
2022/11/16 02:45:52;;;;;;;;;;;11.10;99.90;;;;;;5156905;27;20054;-65
2022/11/16 02:48:46;;;;;;;24.60;15.30;;;11.00;99.90;;;;;;5156350;27;19919;-64
2022/11/16 02:51:13;;;;;;;26.63;15.93;;;11.00;99.90;;;;;;5153336;27;20062;-63
2022/11/16 02:53:58;;;;;;;29.58;16.00;;;10.80;99.90;;;;;;5155987;27;20046;-64
2022/11/16 02:56:24;;;;;;;29.35;16.27;;;11.00;99.90;;;;;;5156225;27;20053;-65
2022/11/16 02:58:49;;;;;;;;;;;10.70;99.90;;;;;;5156548;27;20046;-65
2022/11/16 03:01:29;;;;;;;25.85;14.63;;;11.20;99.90;;;;;;5137610;27;19922;-66
2022/11/16 03:04:14;;;;;;;24.40;15.00;;;11.00;99.90;;;;;;5156001;27;20050;-67
2022/11/16 03:06:42;;;;;;;27.90;15.57;;;10.80;99.90;;;;;;5155848;27;20149;-68
2022/11/16 03:09:14;;;;;;;27.30;15.38;;;11.30;99.90;;;;;;5155909;27;20090;-66
2022/11/16 03:11:58;;;;;;;29.83;15.23;;;10.50;99.90;;;;;;5156020;27;20085;-65
2022/11/16 03:14:46;;;;;;;28.20;14.95;;;11.10;99.90;;;;;;5137541;27;20098;-66
2022/11/16 03:17:20;;;;;;;27.75;15.82;;;10.90;99.90;;;;;;5155897;27;20099;-66
2022/11/16 03:19:57;;;;;;;27.67;15.20;;;10.70;99.90;;;;;;5155833;27;20034;-65
2022/11/16 03:22:27;;;;;;;;;;;11.10;99.90;;;;;;5156226;27;20089;-65
2022/11/16 03:24:53;;;;;;;29.30;16.30;;;10.80;99.90;;;;;;5155676;27;19918;-64
2022/11/16 03:27:38;;;;;;;28.08;14.68;;;11.40;99.90;;;;;;5155632;27;20126;-65
2022/11/16 03:30:09;;;;;;;25.83;15.63;;;10.70;99.90;;;;;;5155584;27;20122;-65
2022/11/16 03:32:47;;;;;;;27.67;15.18;;;10.80;99.90;;;;;;5155051;27;20071;-64
2022/11/16 03:35:21;;;;;;;27.00;15.25;;;10.90;99.90;;;;;;5155224;27;20051;-66
2022/11/16 03:37:49;;;;;;;27.08;15.95;;;11.40;99.90;;;;;;5155473;27;20050;-65
2022/11/16 03:40:17;;;;;;;28.00;15.68;;;11.10;99.90;;;;;;5155326;27;20045;-64
2022/11/16 03:42:45;;;;;;;26.83;15.18;;;10.60;99.90;;;;;;5155295;27;20038;-65
2022/11/16 03:45:12;;;;;;;29.50;15.82;;;11.00;99.90;;;;;;5155324;27;20533;-68
2022/11/16 03:47:40;;;;;;;29.88;16.67;;;10.60;99.90;;;;;;5155326;27;20047;-66
2022/11/16 03:50:07;;;;;;;25.83;15.48;;;10.70;99.90;;;;;;5154892;27;20051;-67
2022/11/16 03:52:34;;;;;;;29.20;16.13;;;10.60;99.90;;;;;;5155242;27;20043;-65
2022/11/16 03:54:59;;;;;;;28.55;16.10;;;10.60;99.90;;;;;;5155106;27;20042;-65
2022/11/16 03:57:25;;;;;;;28.15;17.33;;;10.40;99.90;;;;;;5119743;27;20129;-65
2022/11/16 03:59:51;;;;;;;31.17;17.73;;;10.60;99.90;;;;;;5136521;27;20450;-65
2022/11/16 04:02:17;;;;;;;26.00;16.23;;;11.20;99.90;;;;;;5154987;27;20121;-65
2022/11/16 04:24:12;;;;;;;30.83;17.42;;;11.00;99.90;;;;;;5154607;27;20070;-65
2022/11/16 04:29:25;;;;;;;28.73;17.25;;;10.90;99.90;;;;;;5154515;27;20135;-64
2022/11/16 04:40:04;;;;;;;29.50;17.80;;;10.70;99.90;;;;;;5154496;27;20435;-65
2022/11/16 04:42:30;;;;;;;;;;;10.70;99.90;;;;;;5154923;27;20042;-64
2022/11/16 04:47:40;;;;;;;26.70;17.13;;;10.90;99.90;;;;;;5154518;27;20057;-64
2022/11/16 04:50:06;;;;;;;28.33;16.23;;;10.80;99.90;;;;;;5154051;27;20042;-64
2022/11/16 04:52:32;;;;;;;;;;;10.50;99.90;;;;;;5154474;27;20513;-64
2022/11/16 04:54:57;;;;;;;26.08;16.90;;;10.70;99.90;;;;;;5154319;27;20005;-66
2022/11/16 04:57:23;;;;;;;30.02;16.80;;;11.00;99.90;;;;;;5154385;27;20155;-64
2022/11/16 04:59:49;;;;;;;28.17;16.77;;;10.40;99.90;;;;;;5154299;27;20331;-64
2022/11/16 05:02:14;;;;;;;30.98;16.88;;;10.40;99.90;;;;;;5154026;27;20130;-64
2022/11/16 05:04:42;;;;;;;31.13;17.08;;;10.50;99.90;;;;;;5154235;27;20138;-65
2022/11/16 05:07:11;;;;;;;24.25;14.70;;;10.90;99.90;;;;;;5154170;27;20050;-64
2022/11/16 05:09:40;;;;;;;24.92;16.23;;;11.00;99.90;;;;;;5154146;27;20091;-67
2022/11/16 05:12:06;;;;;;;27.52;16.27;;;10.50;99.90;;;;;;5154133;27;20103;-65
2022/11/16 05:14:32;;;;;;;;;;;10.50;99.90;;;;;;5154536;27;20046;-65
2022/11/16 05:16:57;;;;;;;27.08;16.05;;;10.50;99.90;;;;;;5153789;27;19919;-65
2022/11/16 05:22:07;;;;;;;34.20;18.25;;;10.90;99.90;;;;;;5153792;27;20406;-65
2022/11/16 05:24:33;;;;;;;27.70;16.65;;;10.50;99.90;;;;;;5154050;27;20046;-65
2022/11/16 05:27:03;;;;;;;27.50;16.48;;;10.80;99.90;;;;;;5154295;27;20209;-65
2022/11/16 05:29:29;;;;;;;24.33;15.25;;;11.00;99.90;;;;;;5157879;27;20383;-64
2022/11/16 05:31:56;;;;;;;25.50;15.85;;;11.20;99.90;;;;;;5157456;27;20046;-65
2022/11/16 05:34:21;;;;;;;;;;;10.40;99.90;;;;;;5157955;27;20057;-64
2022/11/16 05:36:47;;;;;;;30.92;17.10;;;11.20;99.90;;;;;;5157844;27;20332;-65
2022/11/16 05:39:13;;;;;;;27.67;17.05;;;10.70;99.90;;;;;;5157820;27;20489;-65
2022/11/16 05:41:39;;;;;;;29.50;17.23;;;10.50;99.90;;;;;;5157800;27;20047;-65
2022/11/16 05:44:04;;;;;;;31.13;16.95;;;10.70;99.90;;;;;;5157788;27;20074;-65
2022/11/16 05:46:30;;;;;;;29.08;18.25;;;11.00;99.90;;;;;;5157386;27;20115;-65
2022/11/16 05:48:56;;;;;;;28.63;17.27;;;10.50;99.90;;;;;;5139116;27;20091;-64
2022/11/16 05:51:21;;;;;;;31.10;17.77;;;10.50;99.90;;;;;;5157593;27;20042;-65
2022/11/16 05:53:50;;;;;;;28.00;17.45;;;11.10;99.90;;;;;;5139100;27;20510;-66
2022/11/16 05:56:16;;;;;;;31.10;18.27;;;11.20;99.90;;;;;;5157465;27;20054;-65
2022/11/16 05:58:42;;;;;;;31.17;18.02;;;10.50;99.90;;;;;;5157454;27;20039;-64
2022/11/16 06:01:09;;;;;;;32.67;18.25;;;10.40;99.90;;;;;;5157367;27;20126;-64
2022/11/16 06:03:35;;;;;;;34.17;18.00;;;10.80;99.90;;;;;;5157341;27;20506;-65
2022/11/16 06:06:02;;;;;;;33.38;18.67;;;10.60;99.90;;;;;;5156919;27;20642;-64
2022/11/16 06:08:28;;;;;;;44.85;19.02;;;11.10;99.90;;;;;;5157202;27;20442;-67
2022/11/16 06:10:54;;;;;;;;;;;11.20;99.90;;;;;;5157644;27;20070;-67
2022/11/16 06:13:20;;;;;;;38.47;19.55;;;10.70;99.90;;;;;;5157069;27;20358;-67
2022/11/16 06:15:45;;;;;;;33.60;18.88;;;11.60;99.90;;;;;;5156758;27;20091;-67
2022/11/16 06:18:11;;;;;;;37.88;19.27;;;11.00;99.90;;;;;;5157084;27;20081;-66
2022/11/16 06:20:39;;;;;;;49.05;20.77;;;10.50;99.90;;;;;;5156957;27;20475;-66
2022/11/16 06:23:07;;;;;;;32.65;17.67;;;11.50;99.90;;;;;;5157000;27;20086;-67
2022/11/16 06:25:33;;;;;;;28.73;16.77;;;10.70;99.90;;;;;;5121497;27;20123;-66
2022/11/16 06:27:59;;;;;;;38.40;18.08;;;10.50;99.90;;;;;;5156868;27;20414;-65
2022/11/16 06:30:25;;;;;;;31.52;17.48;;;11.20;99.90;;;;;;5156405;27;20458;-65
2022/11/16 06:32:50;;;;;;;36.88;19.05;;;10.50;99.90;;;;;;5156559;27;20208;-65
2022/11/16 06:35:16;;;;;;;39.72;19.10;;;10.20;99.90;;;;;;5138226;27;20118;-65
2022/11/16 06:37:42;;;;;;;27.75;16.23;;;11.20;99.90;;;;;;5137926;27;20390;-65
2022/11/16 06:40:09;;;;;;;26.63;15.70;;;10.80;99.90;;;;;;5156570;27;20042;-66
2022/11/16 06:42:34;;;;;;;25.55;15.20;;;10.80;99.90;;;;;;5156195;27;20497;-64
2022/11/16 06:45:00;;;;;;;29.42;17.20;;;11.00;99.90;;;;;;5156207;27;20046;-65
2022/11/16 06:47:25;;;;;;;29.75;17.05;;;10.70;99.90;;;;;;5156131;27;20053;-64
2022/11/16 06:49:51;;;;;;;28.98;16.05;;;10.60;99.90;;;;;;5137896;27;20107;-64
2022/11/16 06:52:17;;;;;;;25.48;15.82;;;10.50;99.90;;;;;;5156348;27;20121;-64
2022/11/16 06:54:42;;;;;;;25.85;15.90;;;10.50;99.90;;;;;;5156330;27;20478;-64
2022/11/16 06:57:08;;;;;;;26.50;13.95;;;10.90;99.90;;;;;;5156308;27;20054;-65
2022/11/16 06:59:34;;;;;;;20.38;12.80;;;12.20;99.90;;;;;;5155973;27;20122;-64
2022/11/16 07:01:59;;;;;;;21.98;14.02;;;10.70;99.90;;;;;;5156187;27;20447;-64
2022/11/16 07:04:25;;;;;;;28.17;14.88;;;10.90;99.90;;;;;;5156087;27;20089;-64
2022/11/16 07:06:51;;;;;;;23.88;14.40;;;11.00;99.90;;;;;;5137631;27;20078;-64
2022/11/16 07:09:17;;;;;;;30.48;14.70;;;10.60;99.90;;;;;;5155996;27;20035;-64
2022/11/16 07:11:43;;;;;;;32.58;15.63;;;10.20;99.90;;;;;;5120600;27;20058;-64
2022/11/16 07:14:10;;;;;;;29.58;14.60;;;10.60;99.90;;;;;;5155712;27;20054;-64
2022/11/16 07:16:36;;;;;;;24.58;15.00;;;11.10;99.90;;;;;;5155897;27;20042;-64
2022/11/16 07:19:02;;;;;;;23.60;14.63;;;11.10;99.90;;;;;;5137253;27;20525;-64
2022/11/16 07:21:29;;;;;;;30.65;15.57;;;10.80;99.90;;;;;;5155798;27;20088;-64
2022/11/16 07:23:54;;;;;;;33.35;16.95;;;10.60;99.90;;;;;;5155743;27;20046;-65
2022/11/16 07:26:20;;;;;;;41.70;17.52;;;10.70;99.90;;;;;;5155693;27;20043;-65
2022/11/16 07:28:46;;;;;;;35.38;17.23;;;10.80;99.90;;;;;;5155628;27;20470;-65
2022/11/16 07:31:13;;;;;;;44.70;19.13;;;10.80;99.90;;;;;;5155568;27;20038;-64
2022/11/16 07:33:39;;;;;;;35.60;17.20;;;10.40;99.90;;;;;;5136903;27;20458;-64
2022/11/16 07:36:08;;;;;;;40.13;18.00;;;10.80;99.90;;;;;;5155459;27;20126;-64
2022/11/16 07:38:34;;;;;;;36.05;16.90;;;10.90;99.90;;;;;;5155094;27;20510;-65
2022/11/16 07:41:12;;;;;;;39.78;17.60;;;10.50;99.90;;;;;;5155468;27;20046;-64
2022/11/16 07:43:39;;;;;;;35.80;16.88;;;10.90;99.90;;;;;;5136843;27;20508;-64
2022/11/16 07:46:11;;;;;;;36.60;16.88;;;10.30;99.90;;;;;;5155282;27;20043;-64
2022/11/16 07:48:37;;;;;;;32.83;16.15;;;11.10;99.90;;;;;;5155193;27;20130;-64
2022/11/16 07:51:05;;;;;;;39.20;16.40;;;10.60;99.90;;;;;;5154428;27;20070;-64
2022/11/16 07:53:32;;;;;;;26.25;14.23;;;10.40;99.90;;;;;;5155194;27;20420;-64
2022/11/16 07:55:58;;;;;;;26.50;15.43;;;10.50;99.90;;;;;;5155140;27;20115;-64
2022/11/16 07:58:26;;;;;;;32.20;16.17;;;10.70;99.90;;;;;;5154795;27;20054;-65
2022/11/16 08:00:51;;;;;;;31.85;17.63;;;10.70;99.90;;;;;;5155043;27;20129;-64
2022/11/16 08:03:17;;;;;;;35.55;18.55;;;10.50;99.90;;;;;;5155000;27;20085;-64
2022/11/16 08:05:43;;;;;;;35.92;19.67;;;10.70;99.90;;;;;;5154951;27;20047;-64
2022/11/16 08:08:09;;;;;;;;;;;11.00;99.90;;;;;;5155404;27;20046;-68
2022/11/16 08:10:36;;;;;;;47.47;20.70;;;11.10;99.90;;;;;;5154821;27;20009;-65
2022/11/16 08:13:02;;;;;;;41.40;20.92;;;10.80;99.90;;;;;;5154492;27;20050;-64
2022/11/16 08:15:27;;;;;;;;;;;10.30;99.90;;;;;;5155299;27;20050;-64
2022/11/16 08:17:53;;;;;;;39.83;21.10;;;11.10;99.90;;;;;;5154729;27;19919;-64
2022/11/16 08:20:19;;;;;;;35.97;20.13;;;10.60;99.90;;;;;;5154690;27;20134;-64
2022/11/16 08:22:44;;;;;;;35.45;20.05;;;10.50;99.90;;;;;;5154731;27;20082;-65
2022/11/16 08:25:11;;;;;;;31.40;18.73;;;12.20;99.90;;;;;;5136192;27;20043;-65
2022/11/16 08:27:36;;;;;;;22.98;14.88;;;10.80;99.90;;;;;;5154072;27;20508;-65
2022/11/16 08:30:08;;;;;;;22.20;15.40;;;10.60;99.90;;;;;;5154524;27;20043;-65
2022/11/16 08:32:34;;;;;;;27.13;16.15;;;10.50;99.90;;;;;;5154148;27;20100;-64
2022/11/16 08:34:59;;;;;;;24.00;14.95;;;10.60;99.90;;;;;;5136375;27;20393;-65
2022/11/16 08:37:26;;;;;;;22.02;13.70;;;10.70;99.90;;;;;;5154223;27;20091;-65
2022/11/16 08:39:52;;;;;;;21.70;13.07;;;10.50;99.90;;;;;;5154194;27;20093;-65
2022/11/16 08:42:18;;;;;;;17.98;12.13;;;10.90;99.90;;;;;;5154470;27;20042;-65
2022/11/16 08:44:44;;;;;;;15.93;11.35;;;10.60;99.90;;;;;;5154427;27;20058;-66
2022/11/16 08:47:10;;;;;;;18.08;11.32;;;10.90;99.90;;;;;;5154404;27;20038;-65
2022/11/16 08:49:35;;;;;;;23.48;11.30;;;10.60;99.90;;;;;;5154334;27;20038;-65
2022/11/16 08:52:01;;;;;;;16.10;10.43;;;10.90;99.90;;;;;;5154332;27;20403;-65
2022/11/16 08:54:28;;;;;;;13.77;9.80;;;10.30;99.90;;;;;;5154004;27;20394;-65
2022/11/16 08:56:53;;;;;;;15.98;10.65;;;10.70;99.90;;;;;;5154295;27;20138;-65
2022/11/16 08:59:19;;;;;;;18.00;11.20;;;10.90;99.90;;;;;;5154333;27;20538;-65
2022/11/16 09:01:45;;;;;;;20.30;11.68;;;11.00;99.90;;;;;;5155946;27;20087;-66
2022/11/16 09:04:11;;;;;;;27.33;13.75;;;10.80;99.90;;;;;;5158827;27;20050;-65
2022/11/16 09:06:37;;;;;;;28.98;15.82;;;10.50;99.90;;;;;;5157637;27;20055;-66
2022/11/16 09:09:03;;;;;;;30.05;18.08;;;10.50;99.90;;;;;;5158056;27;20041;-65
2022/11/16 09:11:29;;;;;;;;;;;10.90;99.90;;;;;;5158806;27;20046;-65
2022/11/16 09:13:55;;;;;;;27.73;16.92;;;10.80;99.90;;;;;;5158349;27;19930;-66
2022/11/16 09:16:22;;;;;;;30.60;17.08;;;10.90;99.90;;;;;;5158215;27;20504;-66
2022/11/16 09:18:49;;;;;;;33.92;17.55;;;10.70;99.90;;;;;;5158181;27;20042;-65
2022/11/16 09:21:20;;;;;;;31.85;17.67;;;10.70;99.90;;;;;;5158152;27;20049;-66
2022/11/16 09:23:47;;;;;;;31.05;17.35;;;10.60;99.90;;;;;;5157838;27;20082;-66
2022/11/16 09:26:13;;;;;;;27.73;16.13;;;11.00;99.90;;;;;;5158058;27;20413;-66
2022/11/16 09:28:39;;;;;;;26.27;16.13;;;10.60;99.90;;;;;;5157981;27;20043;-66
2022/11/16 09:31:05;;;;;;;32.35;17.00;;;11.10;99.90;;;;;;5158011;27;20754;-66
2022/11/16 09:33:31;;;;;;;26.92;16.92;;;11.80;99.90;;;;;;5157908;27;20059;-67
2022/11/16 09:36:15;;;;;;;30.55;17.15;;;10.90;99.90;;;;;;5157797;27;20100;-66
2022/11/16 09:38:43;;;;;;;28.98;16.65;;;10.90;99.90;;;;;;5157531;27;20133;-66
2022/11/16 09:41:20;;;;;;;23.88;15.88;;;10.80;99.90;;;;;;5157694;27;20129;-66
2022/11/16 09:43:52;;;;;;;25.70;15.30;;;11.00;99.90;;;;;;5157833;27;20046;-67
2022/11/16 09:46:25;;;;;;;27.48;15.57;;;10.90;99.90;;;;;;5157755;27;20050;-66
2022/11/16 09:48:51;;;;;;;27.52;16.23;;;11.20;99.90;;;;;;5157587;27;20047;-68
2022/11/16 09:51:19;;;;;;;;;;;11.30;99.90;;;;;;5157997;27;20043;-67
2022/11/16 09:54:13;;;;;;;28.02;16.77;;;11.30;99.90;;;;;;5157288;27;19945;-69
2022/11/16 09:56:41;;;;;;;26.48;16.60;;;11.20;99.90;;;;;;5157531;27;20447;-66
2022/11/16 09:59:29;;;;;;;29.17;17.52;;;11.40;99.90;;;;;;5157392;27;20041;-68
2022/11/16 10:02:33;;;;;;;24.23;16.05;;;10.50;99.90;;;;;;5157323;27;20038;-66
2022/11/16 10:05:16;;;;;;;30.98;17.33;;;11.10;99.90;;;;;;5157237;27;20121;-65
2022/11/16 10:07:47;;;;;;;28.67;17.70;;;11.10;99.90;;;;;;5156988;27;20046;-67
2022/11/16 10:10:20;;;;;;;26.10;17.48;;;10.90;99.90;;;;;;5138664;27;20038;-66
2022/11/16 10:13:05;;;;;;;24.88;16.75;;;11.10;99.90;;;;;;5156408;27;20467;-67
2022/11/16 10:15:56;;;;;;;25.92;17.50;;;11.00;99.90;;;;;;5157036;27;20050;-68
2022/11/16 10:18:43;;;;;;;28.98;16.58;;;11.60;99.90;;;;;;5117857;27;20142;-67
2022/11/16 10:21:51;;;;;;;30.05;17.70;;;11.30;99.90;;;;;;5157077;27;20046;-67
2022/11/16 10:24:38;;;;;;;30.67;17.67;;;11.10;99.90;;;;;;5133940;27;20133;-66
2022/11/16 10:27:28;;;;;;;30.92;17.20;;;11.50;99.90;;;;;;5156957;27;20125;-67
2022/11/16 10:30:06;;;;;;;32.25;18.48;;;11.70;99.90;;;;;;5156866;27;20043;-67
2022/11/16 10:32:39;;;;;;;29.83;18.83;;;11.60;99.90;;;;;;5156660;27;20058;-68
2022/11/16 10:35:34;;;;;;;37.00;19.90;;;11.80;99.90;;;;;;5156770;27;20062;-67
2022/11/16 10:38:02;;;;;;;32.15;18.80;;;11.80;99.90;;;;;;5156425;27;20045;-67
2022/11/16 10:40:36;;;;;;;35.28;18.60;;;12.10;99.90;;;;;;5156643;27;20047;-67
2022/11/16 10:43:16;;;;;;;29.98;18.45;;;12.10;99.90;;;;;;5156604;27;20095;-69
2022/11/16 10:45:51;;;;;;;29.45;16.40;;;11.70;99.90;;;;;;5156858;27;20374;-67
2022/11/16 10:48:35;;;;;;;29.80;17.90;;;12.10;99.90;;;;;;5156471;27;20053;-67
2022/11/16 10:51:02;;;;;;;33.65;18.13;;;12.00;99.90;;;;;;5137680;27;20051;-68
2022/11/16 10:53:40;;;;;;;29.55;17.35;;;11.60;99.90;;;;;;5156388;27;20049;-67
2022/11/16 10:56:36;;;;;;;29.45;17.65;;;12.10;99.90;;;;;;5156322;27;20122;-67
2022/11/16 10:59:09;;;;;;;28.08;16.55;;;12.20;99.90;;;;;;5156271;27;20050;-69
2022/11/16 11:01:40;;;;;;;27.60;16.17;;;12.00;99.90;;;;;;5156260;27;20187;-68
2022/11/16 11:04:25;;;;;;;29.88;16.38;;;11.70;99.90;;;;;;5156173;27;20059;-69
2022/11/16 11:06:56;;;;;;;27.90;15.10;;;11.90;99.90;;;;;;5155858;27;20047;-69
2022/11/16 11:09:23;;;;;;;26.33;16.70;;;11.70;99.90;;;;;;5156058;27;20050;-68
2022/11/16 11:15:10;;;;;;;25.98;15.60;;;12.00;99.90;;;;;;5155943;27;20061;-68
2022/11/16 11:17:47;;;;;;;25.60;14.93;;;11.90;99.90;;;;;;5155898;27;20042;-67
2022/11/16 11:20:16;;;;;;;24.02;13.43;;;12.10;99.90;;;;;;5155643;27;20049;-67
2022/11/16 11:22:49;;;;;;;23.85;13.82;;;11.90;99.90;;;;;;5155859;27;20050;-69
2022/11/16 11:25:37;;;;;;;21.27;13.30;;;12.10;99.90;;;;;;5155831;27;20078;-67
2022/11/16 11:28:18;;;;;;;25.27;13.10;;;12.00;99.90;;;;;;5155710;27;20047;-67
2022/11/16 11:31:08;;;;;;;17.88;11.25;;;12.30;99.90;;;;;;5155615;27;20466;-67
2022/11/16 11:33:41;;;;;;;18.23;11.50;;;12.20;99.90;;;;;;5155368;27;20505;-68
2022/11/16 11:36:17;;;;;;;21.35;11.20;;;11.90;99.90;;;;;;5155524;27;20057;-69
2022/11/16 11:39:02;;;;;;;21.15;12.20;;;11.80;99.90;;;;;;5155628;27;20125;-68
2022/11/16 11:41:42;;;;;;;16.20;11.32;;;12.10;99.90;;;;;;5155502;27;20119;-68
2022/11/16 11:44:16;;;;;;;19.08;11.65;;;12.00;99.90;;;;;;5155490;27;20089;-68
2022/11/16 11:47:21;;;;;;;15.73;11.35;;;12.10;99.90;;;;;;5155353;27;20050;-69
2022/11/16 11:49:52;;;;;;;20.23;12.30;;;12.10;99.90;;;;;;5122486;27;20440;-69
2022/11/16 11:52:59;;;;;;;23.02;11.60;;;12.10;99.90;;;;;;5155260;27;20042;-68
2022/11/16 11:55:25;;;;;;;23.90;11.73;;;12.00;99.90;;;;;;5154352;27;20058;-68
2022/11/16 11:57:52;;;;;;;17.48;10.13;;;12.00;99.90;;;;;;5155171;27;20122;-68
2022/11/16 12:00:18;;;;;;;17.30;10.15;;;12.90;99.90;;;;;;5155057;27;20053;-68
2022/11/16 12:03:02;;;;;;;;;;;12.00;99.90;;;;;;5155161;27;20103;-68
2022/11/16 12:05:37;;;;;;;16.13;9.93;;;12.20;99.90;;;;;;5155044;27;19964;-68
2022/11/16 12:08:20;;;;;;;24.15;10.18;;;12.30;99.90;;;;;;5154994;27;20078;-68
2022/11/16 12:10:54;;;;;;;17.73;9.43;;;12.10;99.90;;;;;;5154941;27;20042;-69
2022/11/16 12:13:50;;;;;;;16.88;8.85;;;12.60;99.90;;;;;;5154936;27;20135;-68
2022/11/16 12:17:02;;;;;;;13.55;7.45;;;12.50;99.90;;;;;;5154844;27;20049;-68
2022/11/16 12:20:05;;;;;;;17.48;8.30;;;12.80;99.90;;;;;;5150170;27;20082;-69
2022/11/16 12:22:57;;;;;;;16.88;8.13;;;12.70;99.90;;;;;;5154716;27;20103;-68
2022/11/16 12:25:31;;;;;;;11.15;7.18;;;13.00;99.90;;;;;;5154794;27;20190;-69
2022/11/16 12:28:06;;;;;;;18.00;7.80;;;13.30;99.90;;;;;;5154733;27;20042;-70
2022/11/16 12:30:40;;;;;;;14.05;8.15;;;13.30;99.90;;;;;;5154564;27;20375;-69
2022/11/16 12:33:27;;;;;;;13.60;6.72;;;12.80;99.90;;;;;;5154195;27;20151;-68
2022/11/16 12:36:13;;;;;;;12.48;7.10;;;13.40;99.90;;;;;;5154156;27;20050;-69
2022/11/16 12:39:12;;;;;;;8.68;5.50;;;13.60;99.90;;;;;;5136114;27;20467;-69
2022/11/16 12:41:52;;;;;;;13.20;6.97;;;14.10;99.90;;;;;;5154479;27;20057;-71
2022/11/16 12:44:47;;;;;;;24.13;5.30;;;14.00;99.90;;;;;;5154540;27;20376;-69
2022/11/16 12:47:24;;;;;;;11.48;5.38;;;14.30;99.90;;;;;;5142541;27;20157;-68
2022/11/16 12:50:06;;;;;;;11.43;5.70;;;14.60;99.90;;;;;;5135925;27;20043;-69
2022/11/16 12:52:46;;;;;;;7.68;4.85;;;14.60;99.90;;;;;;5154009;27;20051;-69
2022/11/16 12:55:14;;;;;;;11.82;5.97;;;14.40;99.90;;;;;;5154096;27;20050;-69
2022/11/16 12:57:46;;;;;;;10.63;5.22;;;14.70;99.90;;;;;;5153728;27;20078;-69
2022/11/16 13:00:11;;;;;;;10.27;4.70;;;14.50;99.90;;;;;;5154059;27;20047;-68
2022/11/16 13:02:43;;;;;;;;;;;14.70;99.90;;;;;;5154371;27;20133;-69
2022/11/16 13:05:19;;;;;;;15.75;4.88;;;14.90;99.90;;;;;;5153780;27;20454;-69
2022/11/16 13:07:57;;;;;;;10.87;4.17;;;15.00;99.90;;;;;;5135893;27;20382;-70
2022/11/16 13:10:27;;;;;;;9.02;4.00;;;15.50;99.90;;;;;;5154033;27;20138;-69
2022/11/16 13:12:59;;;;;;;8.50;4.00;;;15.10;99.90;;;;;;5135814;27;20054;-71
2022/11/16 13:15:37;;;;;;;6.72;3.78;;;15.20;99.90;;;;;;5153897;27;20085;-69
2022/11/16 13:18:06;;;;;;;10.15;3.95;;;15.30;99.90;;;;;;5154155;27;20038;-72
2022/11/16 13:20:57;;;;;;;8.60;3.40;;;15.50;99.90;;;;;;5153897;27;20082;-70
2022/11/16 13:23:37;;;;;;;8.18;3.38;;;15.20;99.90;;;;;;5154134;27;20097;-73
2022/11/16 13:26:21;;;;;;;8.05;3.08;;;15.00;99.90;;;;;;5153871;27;20095;-70
2022/11/16 13:29:14;;;;;;;15.23;3.08;;;14.40;99.90;;;;;;5153864;27;20061;-70
2022/11/16 13:31:55;;;;;;;8.93;2.75;;;13.80;99.90;;;;;;5153560;27;20046;-69
2022/11/16 13:34:23;;;;;;;10.98;2.85;;;13.40;99.90;;;;;;5154040;27;20497;-69
2022/11/16 13:36:49;;;;;;;5.38;2.47;;;13.10;99.90;;;;;;5135543;27;20380;-70
2022/11/16 13:39:16;;;;;;;;;;;13.20;99.90;;;;;;5154348;27;20183;-72